Nearby METAR Reports

 

KIAG - Niagara Falls, New York, USA
Distance from station: W 12mi, 20km
Updated: 08/17/2018 12:53pm
Overcast
Overcast
 Wind from SSW
Wind: SSW 13 mph , 20 km/h
Temperature: 75°F , 24°C
Dew Point: 72°F , 22°C
Humidity: 89%
Barometer: 1012.2 hPa
Clouds: Overcast
Visibility: 8 miles , 13 km
Cloud details: Overcast 1400 ft
2018/08/17 16:53 KIAG 171653Z 20011KT 8SM OVC014 24/22 A2989 RMK AO2 RAB36E45 SLP116 P0000 T02390217
KBUF - Buffalo/Cheektow, New York, USA
Distance from station: S 13mi, 21km
Updated: 08/17/2018 12:54pm
Overcast
Overcast
 Wind from S
Wind: S 8 mph , 13 km/h
Temperature: 73°F , 23°C
Dew Point: 72°F , 22°C
Humidity: 94%
Barometer: 1012.9 hPa
Clouds: Overcast
Visibility: 10 miles , 16 km
Cloud details: Overcast 1900 ft
2018/08/17 16:54 KBUF 171654Z 19007KT 10SM OVC019 23/22 A2991 RMK AO2 RAB23E39 SLP124 P0003 T02330217
 
KROC - Rochester, New York, USA
Distance from station: E 51mi, 82km
Updated: 08/17/2018 1:07pm
Mostly cloudy
Mostly cloudy
 Wind from SW
Wind: SW 9 mph , 15 km/h
Temperature: 81°F , 27°C
Heat Index: 86°F , 30°C
Dew Point: 73°F , 23°C
Humidity: 79%
Barometer: 1012.5 hPa
Clouds: Mostly cloudy
Visibility: 10 miles , 16 km
Cloud details: Few Clouds 2700 ft
Mostly cloudy 3400 ft
Mostly cloudy 9000 ft
2018/08/17 17:07 KROC 171707Z 22008KT 10SM FEW027 BKN034 BKN090 27/23 A2990 RMK AO2 T02720228
CYSN - St. Catharines A, Ontario, Canada
Distance from station: WNW 25mi, 40km
Updated: 08/17/2018 1:00pm
Overcast
Overcast
 Wind from SW
Wind: SW 15 mph , 24 km/h, Gust: 23 mph , 37 km/h
Temperature: 81°F , 27°C
Heat Index: 86°F , 30°C
Dew Point: 73°F , 23°C
Humidity: 79%
Barometer: 1011.2 hPa
Clouds: Overcast
Visibility: 12 miles , 19 km
Cloud details: Overcast 1800 ft
2018/08/17 17:00 CYSN 171700Z 23013G20KT 12SM OVC018 27/23 A2986 RMK SC8 SLP110 DENSITY ALT 1900FT
 
KOLE - Olean, New York, USA
Distance from station: SSE 63mi, 102km
Updated: 08/17/2018 1:15pm
Overcast
Overcast
 Wind from SW
Wind: SW 10 mph , 17 km/h, Gust: 16 mph , 26 km/h
Temperature: 72°F , 22°C
Dew Point: 70°F , 21°C
Humidity: 94%
Barometer: 1015.9 hPa
Clouds: Overcast
Visibility: 10 miles , 16 km
Cloud details: Overcast 1500 ft
2018/08/17 17:15 KOLE 171715Z AUTO 22009G14KT 10SM OVC015 22/21 A3000 RMK AO2
KJHW - Jamestown, New York, USA
Distance from station: SSW 74mi, 119km
Updated: 08/17/2018 1:28pm
Overcast
Overcast
 Wind from SW
Wind: SW 15 mph , 24 km/h
Temperature: 73°F , 23°C
Dew Point: 70°F , 21°C
Humidity: 89%
Barometer: 1015.6 hPa
Clouds: Overcast
Visibility: 10 miles , 16 km
Cloud details: Mostly cloudy 1100 ft
Overcast 1900 ft
2018/08/17 17:28 KJHW 171728Z AUTO 23013KT 10SM BKN011 OVC019 23/21 A2999 RMK AO2
 
CWWZ - Port Weller (mar, Ontario, Canada
Distance from station: WNW 28mi, 45km
Updated: 08/17/2018 1:00pm

 Wind from SSW
Wind: SSW 8 mph , 13 km/h
Temperature: 81°F , 27°C
Heat Index: 87°F , 31°C
Dew Point: 75°F , 24°C
Humidity: 84%
2018/08/17 17:00 CWWZ 171700Z AUTO 21007KT 27/24 RMK AO1 SLP109 T02650238 58016
CWPC - Port Colborne(Au, Ontario, Canada
Distance from station: WSW 33mi, 53km
Updated: 08/17/2018 1:00pm

 Wind from WSW
Wind: WSW 25 mph , 41 km/h, Gust: 32 mph , 52 km/h
Temperature: 75°F , 24°C
Dew Point: 70°F , 21°C
Humidity: 83%
2018/08/17 17:00 CWPC 171700Z AUTO 25022G28KT 24/21 RMK AO1 PK WND 24031/1635 SLP120 T02400213 57011
 
CXVN - Vineland (au8), Ontario, Canada
Distance from station: W 36mi, 58km
Updated: 08/17/2018 1:00pm

 Wind from SW
Wind: SW 14 mph , 22 km/h, Gust: 23 mph , 37 km/h
Temperature: 82°F , 28°C
Heat Index: 87°F , 31°C
Dew Point: 73°F , 23°C
Humidity: 74%
2018/08/17 17:00 CXVN 171700Z AUTO 22012G20KT 28/23 RMK AO1 8018 PK WND 22020/1650 SLP098 T02790227 50006
CYTZ - Toronto Il Vor, Ontario, Canada
Distance from station: NW 50mi, 81km
Updated: 08/17/2018 1:00pm
Mostly cloudy
Mostly cloudy
 Wind from S
Wind: S 8 mph , 13 km/h
Temperature: 79°F , 26°C
Dew Point: 75°F , 24°C
Humidity: 89%
Barometer: 1010.8 hPa
Clouds: Mostly cloudy
Visibility: 9 miles , 14 km
Cloud details: Partly cloudy 3000 ft
Mostly cloudy 3600 ft
Mostly cloudy 7000 ft
2018/08/17 17:00 CYTZ 171700Z AUTO 17007KT 9SM SCT030 BKN036 BKN070 26/24 A2985 RMK SLP108 DENSITY ALT 1600FT
 
CXTO - Toronto City, Ontario, Canada
Distance from station: NW 52mi, 84km
Updated: 08/17/2018 1:00pm

 
Temperature: 81°F , 27°C
Heat Index: 85°F , 29°C
Dew Point: 70°F , 21°C
Humidity: 70%
2018/08/17 17:00 CXTO 171700Z AUTO 27/21 RMK AO1 SLP109 T02680210 58016
KDKK - Dunkirk, New York, USA
Distance from station: SW 52mi, 84km
Updated: 08/17/2018 12:53pm
Overcast
Overcast
 Wind from SW
Wind: SW 12 mph , 19 km/h
Temperature: 79°F , 26°C
Dew Point: 70°F , 21°C
Humidity: 74%
Barometer: 1012.9 hPa
Clouds: Overcast
Visibility: 10 miles , 16 km
Cloud details: Mostly cloudy 2500 ft
Overcast 3100 ft
2018/08/17 16:53 KDKK 171653Z AUTO 23010KT 10SM BKN025 OVC031 26/21 A2991 RMK AO2 SLP125 T02560211 $
 
CYOO - Oshawa, Ontario, Canada
Distance from station: N 56mi, 90km
Updated: 08/17/2018 1:00pm
Mostly cloudy
Mostly cloudy
 Wind from SSW
Wind: SSW 12 mph , 19 km/h
Temperature: 79°F , 26°C
Dew Point: 73°F , 23°C
Humidity: 84%
Barometer: 1011.2 hPa
Clouds: Mostly cloudy
Visibility: 9 miles , 14 km
Cloud details: Mostly cloudy 1200 ft
2018/08/17 17:00 CYOO 171700Z AUTO 20010KT 9SM BKN012 26/23 A2986 RMK LTNG DIST N NE SLP110 DENSITY ALT 1800FT
CWWB - Burlington Piers, Ontario, Canada
Distance from station: WNW 56mi, 91km
Updated: 08/17/2018 1:00pm

 Wind from WSW
Wind: WSW 8 mph , 13 km/h
Temperature: 82°F , 28°C
Heat Index: 86°F , 30°C
Dew Point: 70°F , 21°C
Humidity: 66%
2018/08/17 17:00 CWWB 171700Z AUTO 24007KT 28/21 RMK AO1 SLP101 T02790213 58019
 
CYYZ - Toronto/Pearson, Ontario, Canada
Distance from station: NW 60mi, 96km
Updated: 08/17/2018 1:00pm
Overcast
Overcast
 Wind from W
Wind: W 9 mph , 15 km/h
Temperature: 79°F , 26°C
Dew Point: 72°F , 22°C
Humidity: 79%
Barometer: 1011.2 hPa
Clouds: Overcast
Visibility: 12 miles , 19 km
Cloud details: Partly cloudy 1700 ft
Overcast 3600 ft
2018/08/17 17:00 CYYZ 171700Z 26008KT 180V290 12SM SCT017 OVC036 26/22 A2986 RMK CU4CU4 SLP110 DENSITY ALT 2100FT
CYKZ - Toronto Buttonvi, Ontario, Canada
Distance from station: NW 62mi, 99km
Updated: 08/17/2018 1:00pm
Mostly cloudy
Mostly cloudy
 Wind from SSW
Wind: SSW 5 mph , 7 km/h
Temperature: 82°F , 28°C
Heat Index: 89°F , 32°C
Dew Point: 75°F , 24°C
Humidity: 79%
Barometer: 1011.2 hPa
Clouds: Mostly cloudy
Visibility: 14 miles , 22 km
Cloud details: Mostly cloudy 1500 ft
Mostly cloudy 5500 ft
Mostly cloudy 20000 ft
2018/08/17 17:00 CYKZ 171700Z 20004KT 120V280 14SM BKN015TCU BKN055 BKN200 28/24 A2986 RMK TCU5SC1CI1 SLP109 DENSITY ALT 2400FT
 
CXHM - Hamilton Rbg Cs, Ontario, Canada
Distance from station: W 62mi, 100km
Updated: 08/17/2018 1:00pm

 Wind from WSW
Wind: WSW 5 mph , 7 km/h
Temperature: 84°F , 29°C
Heat Index: 88°F , 31°C
Dew Point: 70°F , 21°C
Humidity: 62%
2018/08/17 17:00 CXHM 171700Z AUTO 25004KT 29/21 RMK AO1 SLP095 T02860212 58021
KDSV - Dansville, New York, USA
Distance from station: SE 62mi, 100km
Updated: 08/17/2018 12:54pm
Mostly cloudy
Mostly cloudy
 Wind from varies
Wind: varies 5 mph , 7 km/h
Temperature: 82°F , 28°C
Heat Index: 86°F , 30°C
Dew Point: 70°F , 21°C
Humidity: 66%
Barometer: 1013.5 hPa
Clouds: Mostly cloudy
Visibility: 10 miles , 16 km
Cloud details: Mostly cloudy 3300 ft
Mostly cloudy 4000 ft
2018/08/17 16:54 KDSV 171654Z AUTO VRB04KT 10SM BKN033 BKN040 28/21 A2993 RMK AO2 SLP138 T02780206
 
CYHM - Hamilton Airport, Ontario, Canada
Distance from station: W 63mi, 101km
Updated: 08/17/2018 1:00pm
Mostly cloudy
Mostly cloudy
 Wind from WSW
Wind: WSW 14 mph , 22 km/h
Temperature: 79°F , 26°C
Dew Point: 72°F , 22°C
Humidity: 79%
Barometer: 1011.5 hPa
Clouds: Mostly cloudy
Visibility: 15 miles , 24 km
Cloud details: Partly cloudy 2400 ft
Mostly cloudy 3200 ft
Mostly cloudy 4200 ft
2018/08/17 17:00 CYHM 171700Z 24012KT 15SM SCT024 BKN032 BKN042 26/22 A2987 RMK CU3SC2SC2 SLP113 DENSITY ALT 2400FT
CWNC - Cobourg (mars), Ontario, Canada
Distance from station: NNE 63mi, 102km
Updated: 08/17/2018 1:00pm

 Wind from SW
Wind: SW 9 mph , 15 km/h
Temperature: 77°F , 25°C
Dew Point: 73°F , 23°C
Humidity: 89%
2018/08/17 17:00 CWNC 171700Z AUTO 22008KT 25/23 RMK AO1 SLP106 T02460228 58015